createdAt,value
2018-02-19T00:02:33.138Z,15.70
2018-02-19T00:17:37.123Z,15.10
2018-02-19T00:32:36.093Z,13.67
2018-02-19T00:47:35.023Z,14.63
2018-02-19T01:02:34.668Z,14.93
2018-02-19T01:17:36.123Z,13.53
2018-02-19T01:32:34.430Z,11.03
2018-02-19T01:47:36.252Z,11.70
2018-02-19T02:02:34.333Z,10.47
2018-02-19T02:17:34.373Z,14.53
2018-02-19T02:32:34.302Z,11.90
2018-02-19T02:47:36.176Z,9.47
2018-02-19T03:02:35.221Z,9.53
2018-02-19T03:17:34.556Z,8.63
2018-02-19T03:32:36.039Z,8.27
2018-02-19T03:47:36.484Z,10.67
2018-02-19T04:02:34.413Z,8.00
2018-02-19T04:17:36.869Z,8.80
2018-02-19T04:32:35.778Z,13.20
2018-02-19T04:47:34.807Z,12.07
2018-02-19T05:02:34.637Z,12.53
2018-02-19T05:17:34.364Z,12.70
2018-02-19T05:32:34.934Z,13.10
2018-02-19T05:47:34.268Z,14.23
2018-02-19T06:02:34.815Z,16.87
2018-02-19T06:17:33.522Z,19.03
2018-02-19T06:32:33.472Z,26.30
2018-02-19T06:47:34.042Z,18.60
2018-02-19T07:02:34.401Z,22.50
2018-02-19T07:17:34.509Z,28.43
2018-02-19T07:32:35.766Z,27.47
2018-02-19T07:47:34.278Z,31.23
2018-02-19T08:02:36.215Z,28.97
2018-02-19T08:17:34.684Z,25.97
2018-02-19T08:32:34.711Z,21.30
2018-02-19T08:47:34.549Z,18.63
2018-02-19T09:02:34.537Z,15.37
2018-02-19T09:17:34.945Z,21.00
2018-02-19T09:32:34.890Z,16.20
2018-02-19T09:47:34.877Z,10.90
2018-02-19T10:02:34.822Z,10.17
2018-02-19T10:17:35.189Z,8.37
2018-02-19T10:32:37.133Z,13.10
2018-02-19T10:47:35.041Z,17.17
2018-02-19T11:02:37.001Z,14.60
2018-02-19T11:17:34.940Z,17.43
2018-02-19T11:32:34.880Z,17.00
2018-02-19T11:47:34.750Z,21.30
2018-02-19T12:02:34.704Z,15.00
2018-02-19T12:17:34.713Z,16.00
2018-02-19T12:32:36.677Z,14.97
2018-02-19T12:47:34.493Z,13.23
2018-02-19T13:02:35.493Z,12.90
2018-02-19T13:17:34.964Z,12.03
2018-02-19T13:32:34.853Z,11.33
2018-02-19T13:47:34.813Z,15.00
2018-02-19T14:02:34.657Z,11.27
2018-02-19T14:17:36.076Z,10.43
2018-02-19T14:32:37.145Z,11.23
2018-02-19T14:47:34.950Z,10.73
2018-02-19T15:02:36.929Z,12.80
2018-02-19T15:17:35.365Z,11.33
2018-02-19T15:32:35.286Z,11.97
2018-02-19T15:47:35.385Z,9.73
2018-02-19T16:02:35.152Z,13.13
2018-02-19T16:17:36.517Z,12.80
2018-02-19T16:32:34.457Z,12.03
2018-02-19T16:47:37.457Z,7.70
2018-02-19T17:02:40.794Z,9.90
2018-02-19T17:17:34.772Z,7.67
2018-02-19T17:32:34.671Z,7.30
2018-02-19T17:47:36.615Z,9.27
2018-02-19T18:02:34.544Z,6.83
2018-02-19T18:17:34.940Z,7.23
2018-02-19T18:32:34.903Z,8.53
2018-02-19T18:47:34.883Z,8.57
2018-02-19T19:02:34.836Z,8.47
2018-02-19T19:17:35.232Z,4.33
2018-02-19T19:32:35.767Z,3.17
2018-02-19T20:02:35.069Z,6.30
2018-02-19T20:17:35.396Z,7.50
2018-02-19T20:32:35.484Z,4.50
2018-02-19T20:47:38.295Z,4.53
2018-02-19T21:02:34.595Z,3.40
2018-02-19T21:17:34.370Z,3.40
2018-02-19T21:32:36.105Z,4.03
2018-02-19T21:47:38.213Z,2.50
2018-02-19T22:02:36.420Z,3.17
2018-02-19T22:17:34.366Z,2.23
2018-02-19T22:32:35.797Z,3.93
2018-02-19T22:47:37.746Z,3.90
2018-02-19T23:02:34.599Z,2.73
2018-02-19T23:17:34.246Z,2.40
2018-02-19T23:32:34.030Z,3.63
2018-02-19T23:47:34.403Z,2.30
